Royal Melbourne — WDC2865 — position and weather

sailwx.info

Track history (hours):
 
Tides and Currents Weather Stations Pressure Air Temp Water Temp Dewpoint Dewpoint Depression Visibility Wind Speed Wind Dir Waves Ship Positions

Royal Melbourne

Owner: Harley Marine Services, Inc, Seattle, WA. More information available from US FCC via Universal Licensing System and Coast Guard Vessel Documentation Center.

Last reported at 2016-Apr-30 06:33 UTC. Time now 2016-Apr-30 07:11 UTC.
Position N 37°48' W 122°17'.

Length 30 m; draft 2 m.

Type: Tug. MMSI: 366998830.

Date/timePositionNaut miles runAvg speedWind from/ knotsBaromVisibWave heightAir tempDewpointWater temp
2016-Apr-30 06:33N 37°48' W 122°17'0 0.0
2016-Apr-30 05:33N 37°48' W 122°17'0 0.0
2016-Apr-30 04:23N 37°48' W 122°17'0 0.0
2016-Apr-30 03:11N 37°48' W 122°17'0 0.0
2016-Apr-30 02:29N 37°48' W 122°17'0 0.0
2016-Apr-30 01:26N 37°48' W 122°17'0 0.0
2016-Apr-30 00:23N 37°48' W 122°17'2 2.3
2016-Apr-29 23:33N 37°48' W 122°19'4 3.3
2016-Apr-29 22:27N 37°48' W 122°24'0 0.0
2016-Apr-29 21:33N 37°48' W 122°24'0 0.0
2016-Apr-29 20:33N 37°48' W 122°24'0 0.0
2016-Apr-29 19:32N 37°48' W 122°24'0 0.0
2016-Apr-29 18:32N 37°48' W 122°24'0 0.0
2016-Apr-29 17:29N 37°48' W 122°24'0 0.0
2016-Apr-29 16:29N 37°48' W 122°24'0 0.1
2016-Apr-29 15:33N 37°48' W 122°24'3 2.4
2016-Apr-29 14:29N 37°48' W 122°21'3 2.5
2016-Apr-29 13:16N 37°48' W 122°17'0 0.0
2016-Apr-29 12:16N 37°48' W 122°17'0 0.0
2016-Apr-29 11:31N 37°48' W 122°17'0 0.0
2016-Apr-29 10:31N 37°48' W 122°17'0 0.0
2016-Apr-29 09:31N 37°48' W 122°17'0 0.0
2016-Apr-29 08:28N 37°48' W 122°17'0 0.0
2016-Apr-29 07:31N 37°48' W 122°17'0 0.0
2016-Apr-29 06:28N 37°48' W 122°17'0 0.0
2016-Apr-29 05:31N 37°48' W 122°17'0 0.0
2016-Apr-29 04:28N 37°48' W 122°17'0 0.0
2016-Apr-29 03:28N 37°48' W 122°17'0 0.0
2016-Apr-29 02:22N 37°48' W 122°17'0 0.0
2016-Apr-29 01:22N 37°48' W 122°17'0 0.0
2016-Apr-29 00:28N 37°48' W 122°17'0 0.0
2016-Apr-28 23:16N 37°48' W 122°17'0 0.0
2016-Apr-28 22:28N 37°48' W 122°17'0 0.0
2016-Apr-28 21:19N 37°48' W 122°17'0 0.0
2016-Apr-28 20:28N 37°48' W 122°17'0 0.0
2016-Apr-28 19:31N 37°48' W 122°17'0 0.0
2016-Apr-28 18:28N 37°48' W 122°17'0 0.0
2016-Apr-28 17:31N 37°48' W 122°17'0 0.0
2016-Apr-28 16:31N 37°48' W 122°17'0 0.0
2016-Apr-28 15:28N 37°48' W 122°17'0 0.0
2016-Apr-28 14:28N 37°48' W 122°17'0 0.0
2016-Apr-28 13:31N 37°48' W 122°17'0 0.0
2016-Apr-28 12:28N 37°48' W 122°17'0 0.0
2016-Apr-28 11:31N 37°48' W 122°17'0 0.0
2016-Apr-28 10:28N 37°48' W 122°17'0 0.0
2016-Apr-28 09:34N 37°48' W 122°17'0 0.0
2016-Apr-28 08:24N 37°48' W 122°17'0 0.0
2016-Apr-28 07:33N 37°48' W 122°17'0 0.0
2016-Apr-28 06:33N 37°48' W 122°17'0 0.0
2016-Apr-28 05:33N 37°48' W 122°17'0 0.0
2016-Apr-28 04:30N 37°48' W 122°17'0 0.0
2016-Apr-28 03:33N 37°48' W 122°17'0 0.0
2016-Apr-28 02:24N 37°48' W 122°17'0 0.0
2016-Apr-28 01:33N 37°48' W 122°17'0 0.0
2016-Apr-28 00:33N 37°48' W 122°17'0 0.0
2016-Apr-27 23:33N 37°48' W 122°17'0 0.0
2016-Apr-27 22:33N 37°48' W 122°17'0 0.0
2016-Apr-27 21:33N 37°48' W 122°17'0 0.0
2016-Apr-27 20:33N 37°48' W 122°17'0 0.0
2016-Apr-27 19:30N 37°48' W 122°17'0 0.0
2016-Apr-27 18:33N 37°48' W 122°17'3 3.2
2016-Apr-27 17:33N 37°48' W 122°21'6 6.4
2016-Apr-27 16:34N 37°54' W 122°24'2 1.5
2016-Apr-27 15:32N 37°55' W 122°22'0 0.0
2016-Apr-27 14:33N 37°55' W 122°22'0 0.0
2016-Apr-27 13:33N 37°55' W 122°22'1 0.9
2016-Apr-27 12:33N 37°54' W 122°23'6 6.5
2016-Apr-27 11:33N 37°48' W 122°20'3 2.6
2016-Apr-27 10:33N 37°48' W 122°17'0 0.0
2016-Apr-27 09:33N 37°48' W 122°17'0 0.0
2016-Apr-27 08:33N 37°48' W 122°17'0 0.0
2016-Apr-27 07:33N 37°48' W 122°17'0 0.0
2016-Apr-27 06:33N 37°48' W 122°17'0 0.0
2016-Apr-27 05:27N 37°48' W 122°17'0 0.0
2016-Apr-27 04:33N 37°48' W 122°17'0 0.0
2016-Apr-27 03:33N 37°48' W 122°17'0 0.0
2016-Apr-27 02:33N 37°48' W 122°17'0 0.0
2016-Apr-27 01:33N 37°48' W 122°17'0 0.0
2016-Apr-27 00:33N 37°48' W 122°17'0 0.0
2016-Apr-26 23:32N 37°48' W 122°17'0 0.0
2016-Apr-26 22:32N 37°48' W 122°17'0 0.0
2016-Apr-26 21:32N 37°48' W 122°17'0 0.0
2016-Apr-26 20:32N 37°48' W 122°17'0 0.0
2016-Apr-26 19:32N 37°48' W 122°17'0 0.0
2016-Apr-26 18:32N 37°48' W 122°17'0 0.0
2016-Apr-26 17:32N 37°48' W 122°17'0 0.0
2016-Apr-26 16:32N 37°48' W 122°17'0 0.0
2016-Apr-26 15:32N 37°48' W 122°17'0 0.0
2016-Apr-26 14:29N 37°48' W 122°17'0 0.0
2016-Apr-26 13:32N 37°48' W 122°17'0 0.0
2016-Apr-26 12:32N 37°48' W 122°17'0 0.0
2016-Apr-26 11:32N 37°48' W 122°17'0 0.0
2016-Apr-26 10:29N 37°48' W 122°17'0 0.0
2016-Apr-26 09:32N 37°48' W 122°17'0 0.0
2016-Apr-26 08:29N 37°48' W 122°17'0 0.0
2016-Apr-26 07:29N 37°48' W 122°17'0 0.0
2016-Apr-26 06:33N 37°48' W 122°17'6 5.6
2016-Apr-26 05:33N 37°49' W 122°24'0 0.3
2016-Apr-26 04:29N 37°49' W 122°24'0 0.0
2016-Apr-26 03:23N 37°49' W 122°24'0 0.0
2016-Apr-26 02:08N 37°49' W 122°24'0 0.0
2016-Apr-26 01:32N 37°49' W 122°24'0 0.0
2016-Apr-26 00:26N 37°49' W 122°24'0 0.0
2016-Apr-25 23:33N 37°49' W 122°24'0 0.3
2016-Apr-25 22:33N 37°49' W 122°24'6 5.7
2016-Apr-25 21:33N 37°54' W 122°24'2 1.5
2016-Apr-25 20:33N 37°55' W 122°22'0 0.0
2016-Apr-25 19:33N 37°55' W 122°22'0 0.0
2016-Apr-25 18:30N 37°55' W 122°22'0 0.0
2016-Apr-25 17:30N 37°55' W 122°22'0 0.0
2016-Apr-25 16:33N 37°55' W 122°22'0 0.0
2016-Apr-25 15:27N 37°55' W 122°22'0 0.0
2016-Apr-25 14:33N 37°55' W 122°22'0 0.0
2016-Apr-25 13:33N 37°55' W 122°22'0 0.0
2016-Apr-25 12:33N 37°55' W 122°22'0 0.0
2016-Apr-25 11:33N 37°55' W 122°22'0 0.0
2016-Apr-25 09:33N 37°55' W 122°22'0 0.0
2016-Apr-25 08:15N 37°55' W 122°22'0 0.0
2016-Apr-25 07:33N 37°55' W 122°22'0 0.0
2016-Apr-25 06:33N 37°55' W 122°22'0 0.0
2016-Apr-25 05:30N 37°55' W 122°22'0 0.0
2016-Apr-25 04:33N 37°55' W 122°22'0 0.0
2016-Apr-25 03:27N 37°55' W 122°22'0 0.0
2016-Apr-25 02:33N 37°55' W 122°22'0 0.0
2016-Apr-25 01:33N 37°55' W 122°22'0 0.0
2016-Apr-25 00:33N 37°55' W 122°22'0 0.0
2016-Apr-24 23:33N 37°55' W 122°22'0 0.0
2016-Apr-24 22:33N 37°55' W 122°22'0 0.0
2016-Apr-24 21:33N 37°55' W 122°22'0 0.0
2016-Apr-24 20:30N 37°55' W 122°22'0 0.0
2016-Apr-24 19:30N 37°55' W 122°22'0 0.0
2016-Apr-24 18:33N 37°55' W 122°22'0 0.0
2016-Apr-24 17:30N 37°55' W 122°22'0 0.0
2016-Apr-24 16:30N 37°55' W 122°22'0 0.0
2016-Apr-24 15:33N 37°55' W 122°22'0 0.0
2016-Apr-24 14:33N 37°55' W 122°22'0 0.0
2016-Apr-24 13:15N 37°55' W 122°22'0 0.0
2016-Apr-24 12:27N 37°55' W 122°22'0 0.0
2016-Apr-24 11:32N 37°55' W 122°22'0 0.0
2016-Apr-24 10:32N 37°55' W 122°22'0 0.0
2016-Apr-24 09:26N 37°55' W 122°22'0 0.0
2016-Apr-24 08:32N 37°55' W 122°22'0 0.0
2016-Apr-24 07:32N 37°55' W 122°22'0 0.0
2016-Apr-24 06:29N 37°55' W 122°22'0 0.0
2016-Apr-24 05:32N 37°55' W 122°22'0 0.0
2016-Apr-24 04:32N 37°55' W 122°22'0 0.0
2016-Apr-24 03:26N 37°55' W 122°22'0 0.0
2016-Apr-24 02:26N 37°55' W 122°22'0 0.0
2016-Apr-24 01:32N 37°55' W 122°22'0 0.0
2016-Apr-24 00:32N 37°55' W 122°22'0 0.0
2016-Apr-23 23:32N 37°55' W 122°22'0 0.0
2016-Apr-23 22:20N 37°55' W 122°22'0 0.0
2016-Apr-23 21:29N 37°55' W 122°22'0 0.0
2016-Apr-23 20:32N 37°55' W 122°22'0 0.0
2016-Apr-23 19:32N 37°55' W 122°22'0 0.0
2016-Apr-23 18:32N 37°55' W 122°22'0 0.0
2016-Apr-23 17:32N 37°55' W 122°22'0 0.0
2016-Apr-23 16:32N 37°55' W 122°22'0 0.0
2016-Apr-23 15:32N 37°55' W 122°22'0 0.0
2016-Apr-23 14:32N 37°55' W 122°22'0 0.0
2016-Apr-23 13:20N 37°55' W 122°22'0 0.0
2016-Apr-23 12:32N 37°55' W 122°22'0 0.0
2016-Apr-23 10:29N 37°55' W 122°22'0 0.0
2016-Apr-23 09:26N 37°55' W 122°22'0 0.0
2016-Apr-23 08:29N 37°55' W 122°22'0 0.0
2016-Apr-23 07:29N 37°55' W 122°22'0 0.0
2016-Apr-23 06:14N 37°55' W 122°22'0 0.0
2016-Apr-23 05:29N 37°55' W 122°22'0 0.0
2016-Apr-23 04:29N 37°55' W 122°22'0 0.0
2016-Apr-23 03:32N 37°55' W 122°22'0 0.0
2016-Apr-23 02:25N 37°55' W 122°22'0 0.0
2016-Apr-23 01:31N 37°55' W 122°22'0 0.0
2016-Apr-23 00:31N 37°55' W 122°22'0 0.0
2016-Apr-22 23:31N 37°55' W 122°22'0 0.0
2016-Apr-22 22:31N 37°55' W 122°22'0 0.0
2016-Apr-22 21:31N 37°55' W 122°22'0 0.0
2016-Apr-22 20:31N 37°55' W 122°22'0 0.0
2016-Apr-22 19:31N 37°55' W 122°22'0 0.0
2016-Apr-22 18:31N 37°55' W 122°22'0 0.0
2016-Apr-22 17:31N 37°55' W 122°22'0 0.0
2016-Apr-22 16:31N 37°55' W 122°22'0 0.0
2016-Apr-22 15:28N 37°55' W 122°22'0 0.0
2016-Apr-22 14:31N 37°55' W 122°22'0 0.0
2016-Apr-22 13:31N 37°55' W 122°22'0 0.0
2016-Apr-22 12:31N 37°55' W 122°22'0 0.0
2016-Apr-22 11:31N 37°55' W 122°22'0 0.0
2016-Apr-22 10:28N 37°55' W 122°22'0 0.0
2016-Apr-22 09:25N 37°55' W 122°22'0 0.0
2016-Apr-22 08:28N 37°55' W 122°22'0 0.0
2016-Apr-22 07:28N 37°55' W 122°22'0 0.0
2016-Apr-22 06:31N 37°55' W 122°22'0 0.0
2016-Apr-22 05:31N 37°55' W 122°22'0 0.0
2016-Apr-22 04:25N 37°55' W 122°22'0 0.0
2016-Apr-22 03:31N 37°55' W 122°22'0 0.0
2016-Apr-22 02:31N 37°55' W 122°22'0 0.0
2016-Apr-22 01:31N 37°55' W 122°22'0 0.0
2016-Apr-22 00:31N 37°55' W 122°22'0 0.0
2016-Apr-21 23:31N 37°55' W 122°22'0 0.0
2016-Apr-21 22:31N 37°55' W 122°22'0 0.0
2016-Apr-21 21:31N 37°55' W 122°22'3 3.4
2016-Apr-21 20:33N 37°56' W 122°26'6 6.2
2016-Apr-21 19:33N 38°02' W 122°22'11 0.4
2016-Apr-20 16:33N 38°02' W 122°08'7 7.0
2016-Apr-20 15:33N 38°03' W 122°17'7 7.3
2016-Apr-20 14:33N 37°59' W 122°25'7 7.5
2016-Apr-20 13:33N 37°52' W 122°24'7 6.9
2016-Apr-20 12:33N 37°48' W 122°17'0 0.0
2016-Apr-20 11:30N 37°48' W 122°17'0 0.0
2016-Apr-20 10:30N 37°48' W 122°17'0 0.0
2016-Apr-20 09:30N 37°48' W 122°17'0 0.0
2016-Apr-20 08:30N 37°48' W 122°17'0 0.0
2016-Apr-20 07:27N 37°48' W 122°17'  
Track history (hours):
 
Tides and Currents Weather Stations Pressure Air Temp Water Temp Dewpoint Dewpoint Depression Visibility Wind Speed Wind Dir Waves Ship Positions

Royal Melbourne

Owner: Harley Marine Services, Inc, Seattle, WA. More information available from US FCC via Universal Licensing System and Coast Guard Vessel Documentation Center.

Last reported at 2016-Apr-30 06:33 UTC. Time now 2016-Apr-30 07:11 UTC.
Position N 37°48' W 122°17'.

Length 30 m; draft 2 m.

Type: Tug. MMSI: 366998830.

Date/timePositionNaut miles runAvg speedWind from/ knotsBaromVisibWave heightAir tempDewpointWater temp
2016-Apr-30 06:33N 37°48' W 122°17'0 0.0
2016-Apr-30 05:33N 37°48' W 122°17'0 0.0
2016-Apr-30 04:23N 37°48' W 122°17'0 0.0
2016-Apr-30 03:11N 37°48' W 122°17'0 0.0
2016-Apr-30 02:29N 37°48' W 122°17'0 0.0
2016-Apr-30 01:26N 37°48' W 122°17'0 0.0
2016-Apr-30 00:23N 37°48' W 122°17'2 2.3
2016-Apr-29 23:33N 37°48' W 122°19'4 3.3
2016-Apr-29 22:27N 37°48' W 122°24'0 0.0
2016-Apr-29 21:33N 37°48' W 122°24'0 0.0
2016-Apr-29 20:33N 37°48' W 122°24'0 0.0
2016-Apr-29 19:32N 37°48' W 122°24'0 0.0
2016-Apr-29 18:32N 37°48' W 122°24'0 0.0
2016-Apr-29 17:29N 37°48' W 122°24'0 0.0
2016-Apr-29 16:29N 37°48' W 122°24'0 0.1
2016-Apr-29 15:33N 37°48' W 122°24'3 2.4
2016-Apr-29 14:29N 37°48' W 122°21'3 2.5
2016-Apr-29 13:16N 37°48' W 122°17'0 0.0
2016-Apr-29 12:16N 37°48' W 122°17'0 0.0
2016-Apr-29 11:31N 37°48' W 122°17'0 0.0
2016-Apr-29 10:31N 37°48' W 122°17'0 0.0
2016-Apr-29 09:31N 37°48' W 122°17'0 0.0
2016-Apr-29 08:28N 37°48' W 122°17'0 0.0
2016-Apr-29 07:31N 37°48' W 122°17'0 0.0
2016-Apr-29 06:28N 37°48' W 122°17'0 0.0
2016-Apr-29 05:31N 37°48' W 122°17'0 0.0
2016-Apr-29 04:28N 37°48' W 122°17'0 0.0
2016-Apr-29 03:28N 37°48' W 122°17'0 0.0
2016-Apr-29 02:22N 37°48' W 122°17'0 0.0
2016-Apr-29 01:22N 37°48' W 122°17'0 0.0
2016-Apr-29 00:28N 37°48' W 122°17'0 0.0
2016-Apr-28 23:16N 37°48' W 122°17'0 0.0
2016-Apr-28 22:28N 37°48' W 122°17'0 0.0
2016-Apr-28 21:19N 37°48' W 122°17'0 0.0
2016-Apr-28 20:28N 37°48' W 122°17'0 0.0
2016-Apr-28 19:31N 37°48' W 122°17'0 0.0
2016-Apr-28 18:28N 37°48' W 122°17'0 0.0
2016-Apr-28 17:31N 37°48' W 122°17'0 0.0
2016-Apr-28 16:31N 37°48' W 122°17'0 0.0
2016-Apr-28 15:28N 37°48' W 122°17'0 0.0
2016-Apr-28 14:28N 37°48' W 122°17'0 0.0
2016-Apr-28 13:31N 37°48' W 122°17'0 0.0
2016-Apr-28 12:28N 37°48' W 122°17'0 0.0
2016-Apr-28 11:31N 37°48' W 122°17'0 0.0
2016-Apr-28 10:28N 37°48' W 122°17'0 0.0
2016-Apr-28 09:34N 37°48' W 122°17'0 0.0
2016-Apr-28 08:24N 37°48' W 122°17'0 0.0
2016-Apr-28 07:33N 37°48' W 122°17'0 0.0
2016-Apr-28 06:33N 37°48' W 122°17'0 0.0
2016-Apr-28 05:33N 37°48' W 122°17'0 0.0
2016-Apr-28 04:30N 37°48' W 122°17'0 0.0
2016-Apr-28 03:33N 37°48' W 122°17'0 0.0
2016-Apr-28 02:24N 37°48' W 122°17'0 0.0
2016-Apr-28 01:33N 37°48' W 122°17'0 0.0
2016-Apr-28 00:33N 37°48' W 122°17'0 0.0
2016-Apr-27 23:33N 37°48' W 122°17'0 0.0
2016-Apr-27 22:33N 37°48' W 122°17'0 0.0
2016-Apr-27 21:33N 37°48' W 122°17'0 0.0
2016-Apr-27 20:33N 37°48' W 122°17'0 0.0
2016-Apr-27 19:30N 37°48' W 122°17'0 0.0
2016-Apr-27 18:33N 37°48' W 122°17'3 3.2
2016-Apr-27 17:33N 37°48' W 122°21'6 6.4
2016-Apr-27 16:34N 37°54' W 122°24'2 1.5
2016-Apr-27 15:32N 37°55' W 122°22'0 0.0
2016-Apr-27 14:33N 37°55' W 122°22'0 0.0
2016-Apr-27 13:33N 37°55' W 122°22'1 0.9
2016-Apr-27 12:33N 37°54' W 122°23'6 6.5
2016-Apr-27 11:33N 37°48' W 122°20'3 2.6
2016-Apr-27 10:33N 37°48' W 122°17'0 0.0
2016-Apr-27 09:33N 37°48' W 122°17'0 0.0
2016-Apr-27 08:33N 37°48' W 122°17'0 0.0
2016-Apr-27 07:33N 37°48' W 122°17'0 0.0
2016-Apr-27 06:33N 37°48' W 122°17'0 0.0
2016-Apr-27 05:27N 37°48' W 122°17'0 0.0
2016-Apr-27 04:33N 37°48' W 122°17'0 0.0
2016-Apr-27 03:33N 37°48' W 122°17'0 0.0
2016-Apr-27 02:33N 37°48' W 122°17'0 0.0
2016-Apr-27 01:33N 37°48' W 122°17'0 0.0
2016-Apr-27 00:33N 37°48' W 122°17'0 0.0
2016-Apr-26 23:32N 37°48' W 122°17'0 0.0
2016-Apr-26 22:32N 37°48' W 122°17'0 0.0
2016-Apr-26 21:32N 37°48' W 122°17'0 0.0
2016-Apr-26 20:32N 37°48' W 122°17'0 0.0
2016-Apr-26 19:32N 37°48' W 122°17'0 0.0
2016-Apr-26 18:32N 37°48' W 122°17'0 0.0
2016-Apr-26 17:32N 37°48' W 122°17'0 0.0
2016-Apr-26 16:32N 37°48' W 122°17'0 0.0
2016-Apr-26 15:32N 37°48' W 122°17'0 0.0
2016-Apr-26 14:29N 37°48' W 122°17'0 0.0
2016-Apr-26 13:32N 37°48' W 122°17'0 0.0
2016-Apr-26 12:32N 37°48' W 122°17'0 0.0
2016-Apr-26 11:32N 37°48' W 122°17'0 0.0
2016-Apr-26 10:29N 37°48' W 122°17'0 0.0
2016-Apr-26 09:32N 37°48' W 122°17'0 0.0
2016-Apr-26 08:29N 37°48' W 122°17'0 0.0
2016-Apr-26 07:29N 37°48' W 122°17'0 0.0
2016-Apr-26 06:33N 37°48' W 122°17'6 5.6
2016-Apr-26 05:33N 37°49' W 122°24'0 0.3
2016-Apr-26 04:29N 37°49' W 122°24'0 0.0
2016-Apr-26 03:23N 37°49' W 122°24'0 0.0
2016-Apr-26 02:08N 37°49' W 122°24'0 0.0
2016-Apr-26 01:32N 37°49' W 122°24'0 0.0
2016-Apr-26 00:26N 37°49' W 122°24'0 0.0
2016-Apr-25 23:33N 37°49' W 122°24'0 0.3
2016-Apr-25 22:33N 37°49' W 122°24'6 5.7
2016-Apr-25 21:33N 37°54' W 122°24'2 1.5
2016-Apr-25 20:33N 37°55' W 122°22'0 0.0
2016-Apr-25 19:33N 37°55' W 122°22'0 0.0
2016-Apr-25 18:30N 37°55' W 122°22'0 0.0
2016-Apr-25 17:30N 37°55' W 122°22'0 0.0
2016-Apr-25 16:33N 37°55' W 122°22'0 0.0
2016-Apr-25 15:27N 37°55' W 122°22'0 0.0
2016-Apr-25 14:33N 37°55' W 122°22'0 0.0
2016-Apr-25 13:33N 37°55' W 122°22'0 0.0
2016-Apr-25 12:33N 37°55' W 122°22'0 0.0
2016-Apr-25 11:33N 37°55' W 122°22'0 0.0
2016-Apr-25 09:33N 37°55' W 122°22'0 0.0
2016-Apr-25 08:15N 37°55' W 122°22'0 0.0
2016-Apr-25 07:33N 37°55' W 122°22'0 0.0
2016-Apr-25 06:33N 37°55' W 122°22'0 0.0
2016-Apr-25 05:30N 37°55' W 122°22'0 0.0
2016-Apr-25 04:33N 37°55' W 122°22'0 0.0
2016-Apr-25 03:27N 37°55' W 122°22'0 0.0
2016-Apr-25 02:33N 37°55' W 122°22'0 0.0
2016-Apr-25 01:33N 37°55' W 122°22'0 0.0
2016-Apr-25 00:33N 37°55' W 122°22'0 0.0
2016-Apr-24 23:33N 37°55' W 122°22'0 0.0
2016-Apr-24 22:33N 37°55' W 122°22'0 0.0
2016-Apr-24 21:33N 37°55' W 122°22'0 0.0
2016-Apr-24 20:30N 37°55' W 122°22'0 0.0
2016-Apr-24 19:30N 37°55' W 122°22'0 0.0
2016-Apr-24 18:33N 37°55' W 122°22'0 0.0
2016-Apr-24 17:30N 37°55' W 122°22'0 0.0
2016-Apr-24 16:30N 37°55' W 122°22'0 0.0
2016-Apr-24 15:33N 37°55' W 122°22'0 0.0
2016-Apr-24 14:33N 37°55' W 122°22'0 0.0
2016-Apr-24 13:15N 37°55' W 122°22'0 0.0
2016-Apr-24 12:27N 37°55' W 122°22'0 0.0
2016-Apr-24 11:32N 37°55' W 122°22'0 0.0
2016-Apr-24 10:32N 37°55' W 122°22'0 0.0
2016-Apr-24 09:26N 37°55' W 122°22'0 0.0
2016-Apr-24 08:32N 37°55' W 122°22'0 0.0
2016-Apr-24 07:32N 37°55' W 122°22'0 0.0
2016-Apr-24 06:29N 37°55' W 122°22'0 0.0
2016-Apr-24 05:32N 37°55' W 122°22'0 0.0
2016-Apr-24 04:32N 37°55' W 122°22'0 0.0
2016-Apr-24 03:26N 37°55' W 122°22'0 0.0
2016-Apr-24 02:26N 37°55' W 122°22'0 0.0
2016-Apr-24 01:32N 37°55' W 122°22'0 0.0
2016-Apr-24 00:32N 37°55' W 122°22'0 0.0
2016-Apr-23 23:32N 37°55' W 122°22'0 0.0
2016-Apr-23 22:20N 37°55' W 122°22'0 0.0
2016-Apr-23 21:29N 37°55' W 122°22'0 0.0
2016-Apr-23 20:32N 37°55' W 122°22'0 0.0
2016-Apr-23 19:32N 37°55' W 122°22'0 0.0
2016-Apr-23 18:32N 37°55' W 122°22'0 0.0
2016-Apr-23 17:32N 37°55' W 122°22'0 0.0
2016-Apr-23 16:32N 37°55' W 122°22'0 0.0
2016-Apr-23 15:32N 37°55' W 122°22'0 0.0
2016-Apr-23 14:32N 37°55' W 122°22'0 0.0
2016-Apr-23 13:20N 37°55' W 122°22'0 0.0
2016-Apr-23 12:32N 37°55' W 122°22'0 0.0
2016-Apr-23 10:29N 37°55' W 122°22'0 0.0
2016-Apr-23 09:26N 37°55' W 122°22'0 0.0
2016-Apr-23 08:29N 37°55' W 122°22'0 0.0
2016-Apr-23 07:29N 37°55' W 122°22'0 0.0
2016-Apr-23 06:14N 37°55' W 122°22'0 0.0
2016-Apr-23 05:29N 37°55' W 122°22'0 0.0
2016-Apr-23 04:29N 37°55' W 122°22'0 0.0
2016-Apr-23 03:32N 37°55' W 122°22'0 0.0
2016-Apr-23 02:25N 37°55' W 122°22'0 0.0
2016-Apr-23 01:31N 37°55' W 122°22'0 0.0
2016-Apr-23 00:31N 37°55' W 122°22'0 0.0
2016-Apr-22 23:31N 37°55' W 122°22'0 0.0
2016-Apr-22 22:31N 37°55' W 122°22'0 0.0
2016-Apr-22 21:31N 37°55' W 122°22'0 0.0
2016-Apr-22 20:31N 37°55' W 122°22'0 0.0
2016-Apr-22 19:31N 37°55' W 122°22'0 0.0
2016-Apr-22 18:31N 37°55' W 122°22'0 0.0
2016-Apr-22 17:31N 37°55' W 122°22'0 0.0
2016-Apr-22 16:31N 37°55' W 122°22'0 0.0
2016-Apr-22 15:28N 37°55' W 122°22'0 0.0
2016-Apr-22 14:31N 37°55' W 122°22'0 0.0
2016-Apr-22 13:31N 37°55' W 122°22'0 0.0
2016-Apr-22 12:31N 37°55' W 122°22'0 0.0
2016-Apr-22 11:31N 37°55' W 122°22'0 0.0
2016-Apr-22 10:28N 37°55' W 122°22'0 0.0
2016-Apr-22 09:25N 37°55' W 122°22'0 0.0
2016-Apr-22 08:28N 37°55' W 122°22'0 0.0
2016-Apr-22 07:28N 37°55' W 122°22'0 0.0
2016-Apr-22 06:31N 37°55' W 122°22'0 0.0
2016-Apr-22 05:31N 37°55' W 122°22'0 0.0
2016-Apr-22 04:25N 37°55' W 122°22'0 0.0
2016-Apr-22 03:31N 37°55' W 122°22'0 0.0
2016-Apr-22 02:31N 37°55' W 122°22'0 0.0
2016-Apr-22 01:31N 37°55' W 122°22'0 0.0
2016-Apr-22 00:31N 37°55' W 122°22'0 0.0
2016-Apr-21 23:31N 37°55' W 122°22'0 0.0
2016-Apr-21 22:31N 37°55' W 122°22'0 0.0
2016-Apr-21 21:31N 37°55' W 122°22'3 3.4
2016-Apr-21 20:33N 37°56' W 122°26'6 6.2
2016-Apr-21 19:33N 38°02' W 122°22'11 0.4
2016-Apr-20 16:33N 38°02' W 122°08'7 7.0
2016-Apr-20 15:33N 38°03' W 122°17'7 7.3
2016-Apr-20 14:33N 37°59' W 122°25'7 7.5
2016-Apr-20 13:33N 37°52' W 122°24'7 6.9
2016-Apr-20 12:33N 37°48' W 122°17'0 0.0
2016-Apr-20 11:30N 37°48' W 122°17'0 0.0
2016-Apr-20 10:30N 37°48' W 122°17'0 0.0
2016-Apr-20 09:30N 37°48' W 122°17'0 0.0
2016-Apr-20 08:30N 37°48' W 122°17'0 0.0
2016-Apr-20 07:27N 37°48' W 122°17'  

Dump ship's entire track history